Time;durP1;ratioP1;P1;durP2;ratioP2;P2;SDS_P1;SDS_P2;PMS_P1;PMS_P2;Temp;Humidity;BMP_temperature;BMP_pressure;BME280_temperature;BME280_humidity;BME280_pressure;Samples;Min_cycle;Max_cycle;Signal;HPM_P1;HPM_P2
2024/03/15 00:02:11;;;;;;;7.30;3.40;;;;;;;10.29;100.00;95935.63;5040540;28;20197;-67
2024/03/15 00:04:38;;;;;;;6.23;3.37;;;;;;;10.36;100.00;95936.50;5040045;28;20523;-67
2024/03/15 00:07:05;;;;;;;8.03;4.07;;;;;;;10.38;100.00;95942.44;5040551;28;20234;-68
2024/03/15 00:09:32;;;;;;;9.63;4.03;;;;;;;10.37;100.00;95935.53;5039553;28;20223;-68
2024/03/15 00:11:59;;;;;;;8.80;4.03;;;;;;;10.46;100.00;95939.69;5040239;28;20197;-68
2024/03/15 00:14:26;;;;;;;7.37;4.03;;;;;;;10.44;100.00;95934.63;5041084;28;20630;-67
2024/03/15 00:16:53;;;;;;;6.57;3.73;;;;;;;10.48;100.00;95938.50;5039213;28;20200;-67
2024/03/15 00:19:20;;;;;;;8.33;3.83;;;;;;;10.42;100.00;95948.97;5039993;28;20208;-67
2024/03/15 00:21:47;;;;;;;6.83;3.50;;;;;;;10.45;100.00;95943.31;5039605;28;20212;-67
2024/03/15 00:24:14;;;;;;;7.17;3.70;;;;;;;10.51;100.00;95945.22;5039911;28;20224;-67
2024/03/15 00:26:40;;;;;;;9.87;3.87;;;;;;;10.30;100.00;95942.53;5038523;28;20818;-67
2024/03/15 00:29:07;;;;;;;6.87;3.77;;;;;;;10.40;100.00;95937.81;5047710;28;20212;-68
2024/03/15 00:31:34;;;;;;;6.10;3.37;;;;;;;10.39;100.00;95939.63;5040067;28;20208;-67
2024/03/15 00:34:00;;;;;;;7.50;3.77;;;;;;;10.41;100.00;95949.97;5047027;28;20224;-68
2024/03/15 00:36:30;;;;;;;9.50;4.83;;;;;;;10.49;100.00;95941.97;5040448;28;20942;-68
2024/03/15 00:38:56;;;;;;;10.80;4.27;;;;;;;10.58;100.00;95943.50;5047342;28;20204;-67
2024/03/15 00:41:23;;;;;;;8.07;4.27;;;;;;;10.53;100.00;95935.34;5039502;28;20240;-67
2024/03/15 00:43:51;;;;;;;9.03;4.17;;;;;;;10.58;100.00;95932.97;5053531;28;20369;-67
2024/03/15 00:46:18;;;;;;;8.13;4.10;;;;;;;10.62;100.00;95934.25;5040121;28;20224;-67
2024/03/15 00:48:45;;;;;;;8.77;4.20;;;;;;;10.57;100.00;95936.59;5045231;28;20204;-67
2024/03/15 00:51:12;;;;;;;10.63;4.27;;;;;;;10.53;100.00;95932.72;5048516;28;20660;-68
2024/03/15 00:53:39;;;;;;;10.97;4.43;;;;;;;10.78;100.00;95936.66;5039003;28;20208;-68
2024/03/15 00:56:06;;;;;;;6.83;4.10;;;;;;;10.86;100.00;95936.53;5040411;28;20204;-68
2024/03/15 00:58:32;;;;;;;10.73;4.07;;;;;;;10.82;100.00;95933.47;5039206;28;20216;-67
2024/03/15 01:00:59;;;;;;;7.90;4.40;;;;;;;10.84;100.00;95935.91;5047037;28;20584;-67
2024/03/15 01:03:26;;;;;;;8.20;3.90;;;;;;;10.88;100.00;95937.16;5051090;28;20208;-68
2024/03/15 01:05:52;;;;;;;8.70;4.27;;;;;;;10.85;100.00;95930.44;5052730;28;20221;-67
2024/03/15 01:08:19;;;;;;;9.23;4.20;;;;;;;10.72;100.00;95932.13;5046592;28;20212;-67
2024/03/15 01:10:46;;;;;;;7.80;3.60;;;;;;;10.71;100.00;95926.03;5039173;28;20204;-67
2024/03/15 01:13:13;;;;;;;7.97;4.00;;;;;;;10.64;100.00;95927.78;5041532;28;20200;-68
2024/03/15 01:15:39;;;;;;;6.70;3.90;;;;;;;10.78;100.00;95926.09;5050645;28;20736;-68
2024/03/15 01:18:07;;;;;;;6.67;3.80;;;;;;;10.73;100.00;95928.47;5047737;28;20219;-68
2024/03/15 01:20:33;;;;;;;5.07;3.30;;;;;;;10.58;100.00;95922.44;5051215;28;20338;-68
2024/03/15 01:23:00;;;;;;;10.07;4.20;;;;;;;10.80;100.00;95922.28;5038630;28;20205;-67
2024/03/15 01:25:27;;;;;;;10.20;4.63;;;;;;;10.80;100.00;95917.00;5042189;28;20600;-67
2024/03/15 01:27:53;;;;;;;11.17;4.50;;;;;;;10.70;100.00;95920.94;5053591;28;20204;-67
2024/03/15 01:30:20;;;;;;;6.93;4.27;;;;;;;10.63;100.00;95912.16;5046676;28;20228;-67
2024/03/15 01:32:47;;;;;;;7.87;3.90;;;;;;;10.59;100.00;95913.50;5046100;28;20212;-67
2024/03/15 01:35:13;;;;;;;8.83;4.30;;;;;;;10.74;100.00;95922.22;5045769;28;20247;-68
2024/03/15 01:37:40;;;;;;;8.17;4.03;;;;;;;10.67;100.00;95916.06;5044025;28;20205;-67
2024/03/15 01:40:09;;;;;;;9.93;3.73;;;;;;;10.58;100.00;95922.44;5047588;28;20204;-67
2024/03/15 01:42:35;;;;;;;7.63;3.73;;;;;;;10.73;100.00;95924.03;5051095;28;20216;-68
2024/03/15 01:45:03;;;;;;;7.20;4.07;;;;;;;10.62;100.00;95926.34;5045266;28;20475;-68
2024/03/15 01:47:30;;;;;;;6.63;3.90;;;;;;;10.68;100.00;95920.31;5050108;28;20315;-68
2024/03/15 01:49:57;;;;;;;6.90;3.80;;;;;;;10.62;100.00;95923.69;5037846;28;20208;-67
2024/03/15 01:52:24;;;;;;;6.83;4.00;;;;;;;10.63;100.00;95926.16;5046002;28;20209;-67
2024/03/15 01:54:51;;;;;;;8.90;4.20;;;;;;;10.46;100.00;95918.63;5046326;28;20228;-68
2024/03/15 01:57:18;;;;;;;6.93;3.57;;;;;;;10.57;100.00;95920.78;5046183;28;20204;-68
2024/03/15 01:59:44;;;;;;;7.17;4.30;;;;;;;10.48;100.00;95914.81;5045442;28;20200;-67
2024/03/15 02:02:13;;;;;;;6.13;3.63;;;;;;;10.45;100.00;95915.19;5045213;28;20204;-68
2024/03/15 02:04:40;;;;;;;8.17;4.23;;;;;;;10.46;100.00;95916.00;5046150;28;20228;-67
2024/03/15 02:07:06;;;;;;;9.13;3.93;;;;;;;10.51;100.00;95919.72;5039326;28;20228;-68
2024/03/15 02:09:33;;;;;;;9.37;3.80;;;;;;;10.49;100.00;95923.53;5037460;28;20451;-68
2024/03/15 02:12:00;;;;;;;5.93;3.60;;;;;;;10.45;100.00;95923.09;5045249;28;20211;-67
2024/03/15 02:14:26;;;;;;;7.00;3.77;;;;;;;10.37;100.00;95914.44;5049773;28;20318;-68
2024/03/15 02:16:53;;;;;;;7.27;3.80;;;;;;;10.31;100.00;95914.38;5051230;28;20204;-67
2024/03/15 02:19:20;;;;;;;7.10;3.87;;;;;;;10.42;100.00;95912.94;5045734;28;20220;-67
2024/03/15 02:21:48;;;;;;;6.77;3.53;;;;;;;10.52;100.00;95917.91;5037429;28;20201;-67
2024/03/15 02:24:15;;;;;;;7.37;3.80;;;;;;;10.36;100.00;95918.09;5053479;28;20278;-68
2024/03/15 02:26:41;;;;;;;7.73;3.37;;;;;;;10.36;100.00;95910.19;5044706;28;20224;-68
2024/03/15 02:29:08;;;;;;;7.30;4.10;;;;;;;10.40;100.00;95911.47;5046171;28;20508;-68
2024/03/15 02:31:35;;;;;;;8.27;4.07;;;;;;;10.42;100.00;95909.47;5049142;28;20208;-67
2024/03/15 02:34:03;;;;;;;7.57;3.77;;;;;;;10.44;100.00;95912.75;5045135;28;20718;-68
2024/03/15 02:36:29;;;;;;;8.53;3.70;;;;;;;10.45;100.00;95916.97;5047973;28;20536;-68
2024/03/15 02:38:56;;;;;;;8.57;3.90;;;;;;;10.39;100.00;95913.28;5037491;28;20645;-68
2024/03/15 02:41:23;;;;;;;6.93;3.80;;;;;;;10.31;100.00;95914.38;5048037;28;20212;-68
2024/03/15 02:43:49;;;;;;;7.03;3.93;;;;;;;10.35;100.00;95919.91;5044084;28;20215;-68
2024/03/15 02:46:16;;;;;;;5.93;3.63;;;;;;;10.35;100.00;95916.47;5045861;28;20220;-67
2024/03/15 02:48:43;;;;;;;5.83;3.83;;;;;;;10.26;100.00;95928.09;5045229;28;20208;-67
2024/03/15 02:51:10;;;;;;;8.27;4.00;;;;;;;10.32;100.00;95919.44;5045640;28;20223;-68
2024/03/15 02:53:37;;;;;;;7.30;3.87;;;;;;;10.12;100.00;95923.66;5049671;28;20971;-68
2024/03/15 02:56:04;;;;;;;8.83;3.80;;;;;;;10.24;100.00;95927.44;5037247;28;20208;-67
2024/03/15 02:58:30;;;;;;;5.93;3.23;;;;;;;10.41;100.00;95926.25;5048249;28;20214;-68
2024/03/15 03:00:57;;;;;;;6.87;3.80;;;;;;;10.36;100.00;95923.34;5036745;28;20205;-67
2024/03/15 03:03:24;;;;;;;7.80;3.80;;;;;;;10.23;100.00;95925.00;5047985;28;20209;-67
2024/03/15 03:05:51;;;;;;;8.73;3.77;;;;;;;10.16;100.00;95918.84;5042631;28;20268;-67
2024/03/15 03:08:17;;;;;;;5.30;3.37;;;;;;;10.23;100.00;95917.91;5036486;28;20596;-67
2024/03/15 03:10:44;;;;;;;8.27;4.37;;;;;;;10.12;100.00;95930.72;5050904;28;20200;-68
2024/03/15 03:13:10;;;;;;;5.57;3.53;;;;;;;10.00;100.00;95927.72;5038164;28;20220;-68
2024/03/15 03:15:37;;;;;;;6.80;3.60;;;;;;;10.21;100.00;95925.19;5045357;28;20841;-67
2024/03/15 03:18:04;;;;;;;8.30;4.23;;;;;;;10.27;100.00;95929.72;5044605;28;20200;-67
2024/03/15 03:20:32;;;;;;;7.47;3.87;;;;;;;10.27;100.00;95924.44;5047641;28;20319;-67
2024/03/15 03:22:59;;;;;;;7.13;3.57;;;;;;;10.22;100.00;95926.84;5053296;28;20200;-67
2024/03/15 03:25:26;;;;;;;5.17;3.33;;;;;;;10.32;100.00;95933.47;5041647;28;20730;-67
2024/03/15 03:27:53;;;;;;;6.37;3.60;;;;;;;10.22;100.00;95932.09;5054900;28;20224;-68
2024/03/15 03:30:19;;;;;;;4.73;2.97;;;;;;;10.21;100.00;95932.25;5041772;28;20444;-67
2024/03/15 03:32:46;;;;;;;5.77;3.80;;;;;;;10.25;100.00;95936.19;5047413;28;20210;-68
2024/03/15 03:35:13;;;;;;;10.60;3.83;;;;;;;10.15;100.00;95935.63;5048456;28;20737;-67
2024/03/15 03:37:39;;;;;;;5.60;3.07;;;;;;;10.25;100.00;95939.63;5043656;28;20203;-68
2024/03/15 03:40:13;;;;;;;5.07;2.90;;;;;;;10.42;100.00;95935.78;5048029;28;20211;-68
2024/03/15 03:42:43;;;;;;;5.93;2.97;;;;;;;10.34;100.00;95939.34;5041314;28;20224;-67
2024/03/15 03:45:15;;;;;;;5.50;3.20;;;;;;;10.07;100.00;95939.16;5041244;28;20527;-67
2024/03/15 03:47:43;;;;;;;5.33;3.33;;;;;;;10.25;100.00;95937.00;5051685;28;20251;-67
2024/03/15 03:50:10;;;;;;;5.87;3.00;;;;;;;10.03;100.00;95945.81;5047536;28;20212;-67
2024/03/15 03:52:36;;;;;;;5.80;3.30;;;;;;;9.97;100.00;95943.88;5046965;28;20204;-68
2024/03/15 03:55:05;;;;;;;5.33;3.10;;;;;;;10.17;100.00;95939.72;5039949;28;20483;-67
2024/03/15 03:57:32;;;;;;;5.93;3.13;;;;;;;10.13;100.00;95938.47;5049209;28;20207;-68
2024/03/15 03:59:58;;;;;;;7.10;3.10;;;;;;;10.12;100.00;95947.34;5047840;28;20375;-67
2024/03/15 04:02:25;;;;;;;8.50;2.93;;;;;;;10.24;100.00;95945.88;5050215;28;20686;-68
2024/03/15 04:04:54;;;;;;;5.43;2.80;;;;;;;10.26;100.00;95943.91;5046391;28;20424;-67
2024/03/15 04:07:21;;;;;;;7.37;3.27;;;;;;;10.26;100.00;95943.91;5040320;28;20231;-67
2024/03/15 04:09:47;;;;;;;6.00;3.00;;;;;;;10.19;100.00;95942.97;5052526;28;20666;-68
2024/03/15 04:12:14;;;;;;;4.50;3.00;;;;;;;10.22;100.00;95940.00;5047287;28;20200;-68
2024/03/15 04:14:41;;;;;;;5.13;3.30;;;;;;;10.00;100.00;95947.97;5043966;28;20228;-67
2024/03/15 04:17:08;;;;;;;6.10;2.93;;;;;;;10.18;100.00;95945.78;5045720;28;21162;-68
2024/03/15 04:19:35;;;;;;;5.53;2.87;;;;;;;10.11;100.00;95943.06;5044703;28;20208;-68
2024/03/15 04:22:03;;;;;;;7.33;3.40;;;;;;;10.16;100.00;95938.09;5046418;28;20201;-67
2024/03/15 04:24:34;;;;;;;6.37;3.27;;;;;;;10.14;100.00;95937.44;5046340;28;20228;-67
2024/03/15 04:27:01;;;;;;;6.43;3.50;;;;;;;10.07;100.00;95943.59;5046378;28;20274;-68
2024/03/15 04:29:30;;;;;;;5.33;2.83;;;;;;;10.08;100.00;95948.72;5049768;28;20663;-67
2024/03/15 04:31:57;;;;;;;7.47;2.87;;;;;;;9.94;100.00;95949.47;5052227;28;20204;-67
2024/03/15 04:34:24;;;;;;;6.83;3.03;;;;;;;9.95;100.00;95943.22;5047390;28;20216;-68
2024/03/15 04:36:51;;;;;;;7.87;3.20;;;;;;;9.95;100.00;95945.84;5050064;28;20327;-67
2024/03/15 04:39:18;;;;;;;4.67;2.70;;;;;;;9.94;100.00;95962.63;5047400;28;20211;-68
2024/03/15 04:41:45;;;;;;;5.77;3.07;;;;;;;9.90;100.00;95964.00;5050032;28;20744;-68
2024/03/15 04:44:11;;;;;;;5.37;2.50;;;;;;;9.88;100.00;95965.19;5039407;28;20228;-68
2024/03/15 04:46:39;;;;;;;3.37;2.30;;;;;;;9.70;100.00;95954.16;5047628;28;20196;-67
2024/03/15 04:49:07;;;;;;;5.50;3.00;;;;;;;9.77;100.00;95963.78;5046540;28;20205;-67
2024/03/15 04:51:33;;;;;;;6.37;2.83;;;;;;;9.70;100.00;95962.06;5042577;28;20292;-67
2024/03/15 04:54:00;;;;;;;4.87;2.60;;;;;;;9.70;100.00;95957.59;5052324;28;20216;-67
2024/03/15 04:56:27;;;;;;;4.33;2.40;;;;;;;9.72;100.00;95962.69;5044950;28;20204;-67
2024/03/15 04:58:53;;;;;;;5.47;2.93;;;;;;;9.58;100.00;95965.28;5051453;28;20196;-67
2024/03/15 05:01:20;;;;;;;4.57;2.80;;;;;;;9.55;100.00;95960.38;5041074;28;20698;-67
2024/03/15 05:03:47;;;;;;;8.53;3.00;;;;;;;9.50;100.00;95955.63;5050213;28;20204;-67
2024/03/15 05:06:13;;;;;;;4.93;2.73;;;;;;;9.53;100.00;95960.53;5038717;28;20210;-67
2024/03/15 05:08:40;;;;;;;5.37;2.90;;;;;;;9.51;100.00;95961.72;5044956;28;20260;-68
2024/03/15 05:11:07;;;;;;;4.80;2.63;;;;;;;9.50;100.00;95965.34;5045594;28;20201;-67
2024/03/15 05:13:35;;;;;;;5.23;3.00;;;;;;;9.41;100.00;95966.41;5046125;28;20667;-67
2024/03/15 05:16:02;;;;;;;7.07;3.53;;;;;;;9.49;100.00;95963.72;5050301;28;20460;-67
2024/03/15 05:18:29;;;;;;;4.20;2.70;;;;;;;9.29;100.00;95968.63;5044729;28;20200;-67
2024/03/15 05:20:56;;;;;;;4.17;2.77;;;;;;;9.39;100.00;95977.09;5044679;28;20761;-67
2024/03/15 05:23:22;;;;;;;4.63;3.03;;;;;;;9.42;100.00;95986.44;5040316;28;20215;-67
2024/03/15 05:25:49;;;;;;;6.37;3.10;;;;;;;9.50;100.00;95986.41;5049727;28;20222;-67
2024/03/15 05:28:16;;;;;;;5.63;2.93;;;;;;;9.46;100.00;95987.75;5044772;28;20596;-67
2024/03/15 05:30:43;;;;;;;4.67;2.80;;;;;;;9.53;100.00;95986.03;5043170;28;20196;-68
2024/03/15 05:33:10;;;;;;;9.00;3.57;;;;;;;9.52;100.00;95981.75;5046209;28;20582;-68
2024/03/15 05:35:37;;;;;;;7.27;3.23;;;;;;;9.51;100.00;95980.13;5046872;28;20734;-67
2024/03/15 05:38:04;;;;;;;10.93;4.10;;;;;;;9.52;100.00;95979.97;5050388;28;20219;-67
2024/03/15 05:40:30;;;;;;;9.77;3.83;;;;;;;9.54;100.00;95977.16;5050547;28;20324;-68
2024/03/15 05:42:58;;;;;;;9.63;4.00;;;;;;;9.59;100.00;95973.00;5044777;28;20219;-67
2024/03/15 05:45:24;;;;;;;5.77;3.30;;;;;;;9.63;100.00;95971.63;5037656;28;20234;-68
2024/03/15 05:47:51;;;;;;;10.90;3.93;;;;;;;9.66;100.00;95981.00;5044412;28;20251;-68
2024/03/15 05:50:18;;;;;;;9.03;4.27;;;;;;;9.68;100.00;95975.38;5038823;28;20205;-67
2024/03/15 05:52:44;;;;;;;7.60;3.87;;;;;;;9.73;100.00;95980.09;5038677;28;20197;-67
2024/03/15 05:55:11;;;;;;;7.90;3.87;;;;;;;9.76;100.00;95982.38;5044050;28;20224;-68
2024/03/15 05:57:39;;;;;;;7.17;3.60;;;;;;;9.90;100.00;95985.06;5043612;28;20293;-68
2024/03/15 06:00:12;;;;;;;5.40;3.37;;;;;;;9.90;100.00;95982.41;5038331;28;20254;-68
2024/03/15 06:02:38;;;;;;;6.27;3.43;;;;;;;9.77;100.00;95992.72;5042120;28;20201;-68
2024/03/15 06:05:07;;;;;;;5.63;3.67;;;;;;;10.24;100.00;95988.03;5038589;28;20228;-68
2024/03/15 06:07:33;;;;;;;7.67;3.63;;;;;;;10.13;100.00;95982.38;5037690;28;20235;-68
2024/03/15 06:10:00;;;;;;;5.50;3.30;;;;;;;10.32;100.00;95985.28;5038081;28;20204;-68
2024/03/15 06:12:27;;;;;;;5.90;3.10;;;;;;;10.31;100.00;95986.31;5038423;28;20197;-68
2024/03/15 06:14:54;;;;;;;5.37;2.93;;;;;;;10.40;100.00;95990.50;5038277;28;20231;-68
2024/03/15 06:17:20;;;;;;;7.30;2.93;;;;;;;10.51;100.00;95985.59;5038205;28;20200;-68
2024/03/15 06:19:48;;;;;;;5.80;3.50;;;;;;;10.60;100.00;95987.13;5042650;28;20299;-68
2024/03/15 06:22:16;;;;;;;7.10;4.00;;;;;;;10.50;100.00;95993.66;5038700;28;20735;-68
2024/03/15 06:24:43;;;;;;;7.47;4.07;;;;;;;10.61;100.00;95990.56;5038105;28;20310;-68
2024/03/15 06:27:13;;;;;;;8.03;4.27;;;;;;;10.71;100.00;95996.38;5037287;28;20247;-69
2024/03/15 06:29:40;;;;;;;9.93;4.33;;;;;;;10.81;100.00;95999.56;5038249;28;20797;-68
2024/03/15 06:32:08;;;;;;;6.80;3.60;;;;;;;10.85;100.00;95996.34;5038021;28;20200;-68
2024/03/15 06:34:35;;;;;;;7.07;3.37;;;;;;;11.03;100.00;96000.22;5038075;28;21282;-68
2024/03/15 06:37:04;;;;;;;4.57;2.67;;;;;;;10.98;100.00;96007.88;5038196;28;20298;-68
2024/03/15 06:40:01;;;;;;;9.50;3.03;;;;;;;11.07;100.00;96009.41;5037863;28;20203;-68
2024/03/15 06:42:37;;;;;;;6.83;2.97;;;;;;;11.16;100.00;96010.94;5042223;28;20594;-68
2024/03/15 06:45:08;;;;;;;5.17;2.80;;;;;;;11.30;100.00;96010.06;5038945;28;20641;-68
2024/03/15 06:47:38;;;;;;;4.97;2.47;;;;;;;11.02;100.00;96016.22;5038018;28;20224;-68
2024/03/15 06:50:20;;;;;;;6.23;3.10;;;;;;;11.07;100.00;96019.94;5037644;28;21045;-68
2024/03/15 06:52:46;;;;;;;11.37;5.40;;;;;;;11.20;100.00;96014.81;5039751;28;20200;-68
2024/03/15 06:55:15;;;;;;;9.43;4.70;;;;;;;11.33;100.00;96012.34;5043439;28;20227;-68
2024/03/15 06:57:41;;;;;;;8.03;3.90;;;;;;;11.32;100.00;96018.59;5040213;28;20197;-68
2024/03/15 07:00:09;;;;;;;9.13;4.30;;;;;;;11.42;100.00;96024.41;5047732;28;20266;-68
2024/03/15 07:02:40;;;;;;;11.07;4.80;;;;;;;11.32;100.00;96015.97;5044293;28;20575;-68
2024/03/15 07:05:07;;;;;;;10.27;5.20;;;;;;;11.12;100.00;96017.56;5041955;28;20805;-68
2024/03/15 07:07:36;;;;;;;11.10;4.27;;;;;;;11.30;100.00;96019.78;5040611;28;20204;-68
2024/03/15 07:10:03;;;;;;;10.30;4.87;;;;;;;11.28;100.00;96027.91;5042663;28;20340;-68
2024/03/15 07:12:30;;;;;;;8.83;3.80;;;;;;;11.49;100.00;96024.47;5041841;28;20203;-68
2024/03/15 07:14:57;;;;;;;9.70;3.67;;;;;;;11.58;100.00;96021.53;5040529;28;20223;-68
2024/03/15 07:17:24;;;;;;;6.93;3.23;;;;;;;11.53;100.00;96021.28;5041158;28;20204;-68
2024/03/15 07:19:51;;;;;;;5.07;3.10;;;;;;;11.61;100.00;96029.91;5049733;28;20738;-69
2024/03/15 07:22:18;;;;;;;6.20;3.50;;;;;;;11.52;100.00;96030.22;5041292;28;20196;-69
2024/03/15 07:24:44;;;;;;;13.30;5.77;;;;;;;11.73;100.00;96030.22;5040688;28;20274;-68
2024/03/15 07:27:11;;;;;;;15.30;7.17;;;;;;;11.59;100.00;96034.53;5040865;28;21399;-68
2024/03/15 07:29:38;;;;;;;6.87;4.17;;;;;;;11.62;100.00;96038.63;5040932;28;20224;-69
2024/03/15 07:32:06;;;;;;;5.23;3.03;;;;;;;11.29;100.00;96029.53;5041371;28;20201;-68
2024/03/15 07:34:32;;;;;;;4.90;3.27;;;;;;;11.58;100.00;96029.44;5041425;28;20239;-68
2024/03/15 07:37:01;;;;;;;5.33;2.73;;;;;;;11.49;100.00;96041.09;5040844;28;20201;-68
2024/03/15 07:39:29;;;;;;;10.73;3.20;;;;;;;11.64;100.00;96034.78;5041537;28;20188;-68
2024/03/15 07:41:59;;;;;;;3.80;2.57;;;;;;;11.57;100.00;96035.75;5039982;28;21204;-68
2024/03/15 07:44:25;;;;;;;4.77;3.00;;;;;;;11.45;100.00;96045.13;5040951;28;20295;-68
2024/03/15 07:46:52;;;;;;;5.30;3.30;;;;;;;11.47;100.00;96034.38;5044076;28;20691;-68
2024/03/15 07:49:19;;;;;;;9.10;3.67;;;;;;;11.75;100.00;96041.41;5041030;28;20220;-68
2024/03/15 07:51:46;;;;;;;10.87;3.67;;;;;;;11.62;100.00;96031.53;5045874;28;20197;-68
2024/03/15 07:54:12;;;;;;;12.23;4.10;;;;;;;11.77;100.00;96039.38;5040533;28;20262;-68
2024/03/15 07:56:39;;;;;;;24.10;6.57;;;;;;;11.82;100.00;96039.66;5044671;28;20731;-68
2024/03/15 07:59:06;;;;;;;13.73;5.30;;;;;;;12.21;100.00;96033.69;5040855;28;20667;-68
2024/03/15 08:01:33;;;;;;;4.60;2.33;;;;;;;11.96;100.00;96047.47;5042482;28;20201;-68
2024/03/15 08:03:59;;;;;;;7.37;3.47;;;;;;;12.20;100.00;96041.81;5044970;28;20267;-68
2024/03/15 08:06:27;;;;;;;10.60;3.07;;;;;;;12.85;100.00;96040.41;5041328;28;20201;-68
2024/03/15 08:08:54;;;;;;;7.93;4.37;;;;;;;12.96;100.00;96045.19;5040241;28;20220;-69
2024/03/15 08:11:20;;;;;;;6.30;3.47;;;;;;;13.32;100.00;96046.56;5040057;28;20207;-68
2024/03/15 08:13:47;;;;;;;26.93;5.93;;;;;;;13.30;100.00;96045.13;5040071;28;20331;-68
2024/03/15 08:16:33;;;;;;;6.27;2.43;;;;;;;13.44;100.00;96051.09;5044669;28;20211;-68
2024/03/15 08:19:00;;;;;;;7.10;3.33;;;;;;;13.89;100.00;96050.38;5045226;28;20287;-68
2024/03/15 08:21:27;;;;;;;4.57;2.30;;;;;;;13.95;100.00;96054.06;5040215;28;20210;-68
2024/03/15 08:23:53;;;;;;;4.73;2.30;;;;;;;13.77;100.00;96049.34;5039961;28;20220;-68
2024/03/15 08:26:20;;;;;;;3.77;2.00;;;;;;;13.47;100.00;96049.88;5044110;28;20197;-68
2024/03/15 08:28:49;;;;;;;5.70;2.63;;;;;;;13.64;100.00;96056.44;5044990;28;20221;-69
2024/03/15 08:31:16;;;;;;;3.00;1.80;;;;;;;13.32;100.00;96045.75;5045203;28;20490;-68
2024/03/15 08:33:44;;;;;;;4.97;2.70;;;;;;;13.67;100.00;96058.66;5045067;28;20196;-68
2024/03/15 08:36:12;;;;;;;2.83;1.70;;;;;;;13.31;100.00;96049.41;5043986;28;20254;-69
2024/03/15 08:38:39;;;;;;;13.20;3.03;;;;;;;13.36;100.00;96054.94;5039916;28;20204;-69
2024/03/15 08:41:06;;;;;;;3.93;2.00;;;;;;;13.30;100.00;96053.91;5048800;28;20240;-68
2024/03/15 08:43:33;;;;;;;6.03;2.23;;;;;;;13.63;100.00;96052.97;5048673;28;20200;-69
2024/03/15 08:45:59;;;;;;;5.13;2.17;;;;;;;13.58;100.00;96051.94;5054746;28;20207;-69
2024/03/15 08:48:27;;;;;;;3.87;2.20;;;;;;;13.66;100.00;96049.94;5039474;28;20224;-68
2024/03/15 08:50:54;;;;;;;4.20;2.80;;;;;;;14.05;100.00;96056.13;5039345;28;20205;-68
2024/03/15 08:53:20;;;;;;;4.93;2.30;;;;;;;14.04;100.00;96059.78;5040213;28;20675;-68
2024/03/15 08:55:47;;;;;;;3.40;2.00;;;;;;;14.28;100.00;96058.38;5046040;28;20463;-68
2024/03/15 08:58:14;;;;;;;4.50;2.27;;;;;;;14.25;100.00;96061.47;5043336;28;20209;-67
2024/03/15 09:00:40;;;;;;;5.00;2.10;;;;;;;14.69;100.00;96062.47;5039673;28;20262;-67
2024/03/15 09:03:07;;;;;;;3.03;1.70;;;;;;;14.90;100.00;96060.34;5044037;28;20205;-68
2024/03/15 09:05:38;;;;;;;2.03;1.47;;;;;;;14.69;100.00;96065.91;5043330;28;20216;-68
2024/03/15 09:08:06;;;;;;;3.47;2.20;;;;;;;14.57;100.00;96055.31;5039893;28;20309;-66
2024/03/15 09:10:33;;;;;;;3.67;1.73;;;;;;;14.85;100.00;96052.19;5039308;28;20207;-67
2024/03/15 09:13:00;;;;;;;5.80;1.90;;;;;;;15.00;100.00;96052.78;5038743;28;20220;-68
2024/03/15 09:15:27;;;;;;;4.17;2.23;;;;;;;15.15;100.00;96040.09;5038965;28;20800;-68
2024/03/15 09:17:58;;;;;;;2.80;1.88;;;;;;;15.06;100.00;96041.34;5045783;28;20205;-68
2024/03/15 09:20:33;;;;;;;2.10;1.55;;;;;;;15.29;100.00;96044.38;5042711;28;20200;-68
2024/03/15 09:23:01;;;;;;;2.65;1.90;;;;;;;15.33;100.00;96045.56;5042076;28;20730;-68
2024/03/15 09:25:29;;;;;;;4.07;1.60;;;;;;;15.77;100.00;96046.38;5035594;28;20227;-68
2024/03/15 09:27:57;;;;;;;4.82;2.10;;;;;;;15.75;100.00;96052.94;5042576;28;20220;-68
2024/03/15 09:30:29;;;;;;;4.55;1.83;;;;;;;16.02;100.00;96050.69;5041253;28;20220;-68
2024/03/15 09:32:56;;;;;;;2.90;1.63;;;;;;;15.87;100.00;96044.88;5043480;28;20277;-68
2024/03/15 09:35:23;;;;;;;2.63;1.80;;;;;;;16.21;100.00;96048.94;5039803;28;20225;-68
2024/03/15 09:37:51;;;;;;;2.17;1.55;;;;;;;15.83;100.00;96063.31;5037118;28;20224;-67
2024/03/15 09:48:03;;;;;;;4.30;2.05;;;;;;;15.84;100.00;96045.28;5205098;22;20243;-72
2024/03/15 09:50:31;;;;;;;3.97;1.90;;;;;;;16.16;100.00;96038.94;5001542;28;20832;-70
2024/03/15 09:52:57;;;;;;;4.07;1.40;;;;;;;16.01;100.00;96021.69;5017291;28;20204;-71
2024/03/15 09:55:24;;;;;;;3.83;2.00;;;;;;;16.17;100.00;96027.28;5015552;28;20201;-71
2024/03/15 09:57:51;;;;;;;3.00;1.85;;;;;;;16.47;100.00;96024.81;5007343;28;20221;-71
2024/03/15 10:00:17;;;;;;;3.47;1.70;;;;;;;16.56;100.00;96024.34;5001327;28;20223;-72
2024/03/15 10:02:44;;;;;;;3.45;1.70;;;;;;;16.46;100.00;96039.97;5000836;28;20205;-72
2024/03/15 10:05:11;;;;;;;3.10;1.35;;;;;;;16.61;100.00;96033.28;5001039;28;20201;-72
2024/03/15 10:07:38;;;;;;;3.42;1.77;;;;;;;16.77;97.42;96030.06;4999984;28;20224;-71
2024/03/15 10:10:06;;;;;;;4.30;1.60;;;;;;;16.56;96.43;96029.66;5000722;28;20221;-71
2024/03/15 10:12:34;;;;;;;3.15;1.58;;;;;;;16.62;96.47;96036.75;5000953;28;20203;-72
2024/03/15 10:15:01;;;;;;;2.45;1.50;;;;;;;16.75;96.81;96021.50;5001425;28;20231;-71
2024/03/15 10:17:27;;;;;;;2.08;1.40;;;;;;;16.80;95.72;96026.97;4999931;28;20227;-70
2024/03/15 10:19:54;;;;;;;2.50;1.25;;;;;;;17.09;96.52;96020.91;5000406;28;20197;-71
2024/03/15 10:22:21;;;;;;;2.70;1.50;;;;;;;17.11;95.23;96022.31;5001040;28;20291;-71
2024/03/15 10:24:47;;;;;;;3.00;1.30;;;;;;;17.25;94.36;96031.00;5001334;28;20205;-73
2024/03/15 10:27:14;;;;;;;2.40;1.48;;;;;;;16.98;94.00;96027.00;5000575;28;20735;-71
2024/03/15 10:29:41;;;;;;;2.13;1.30;;;;;;;17.44;93.86;96017.44;5001679;28;20225;-71
2024/03/15 10:32:08;;;;;;;3.88;1.70;;;;;;;17.35;93.83;96018.78;5001758;28;20296;-72
2024/03/15 10:34:35;;;;;;;5.43;1.65;;;;;;;17.31;93.07;96020.28;5001225;28;20201;-71
2024/03/15 10:37:01;;;;;;;1.67;1.02;;;;;;;17.23;92.22;96019.72;5001181;28;20279;-72
2024/03/15 10:39:28;;;;;;;1.70;1.08;;;;;;;17.30;91.60;96015.19;5002071;28;20201;-72
2024/03/15 10:41:55;;;;;;;3.63;1.33;;;;;;;17.57;93.15;96019.94;5001809;28;20215;-71
2024/03/15 10:44:22;;;;;;;3.72;1.38;;;;;;;17.53;92.26;96010.78;4985102;28;20201;-72
2024/03/15 10:46:49;;;;;;;3.63;1.60;;;;;;;18.16;89.37;96007.38;5000825;28;20233;-72
2024/03/15 10:49:16;;;;;;;2.53;1.25;;;;;;;17.85;88.84;96007.66;5001869;28;20406;-71
2024/03/15 10:51:42;;;;;;;6.05;1.70;;;;;;;17.99;91.01;96010.97;5001724;28;20667;-72
2024/03/15 10:54:09;;;;;;;2.60;1.33;;;;;;;18.00;86.73;96007.25;5001788;28;20204;-72
2024/03/15 10:56:36;;;;;;;1.55;1.23;;;;;;;17.91;87.94;96009.41;5001300;28;20224;-72
2024/03/15 10:59:03;;;;;;;1.98;1.17;;;;;;;17.85;88.78;96010.31;5001764;28;20201;-72
2024/03/15 11:01:31;;;;;;;2.45;1.42;;;;;;;18.21;88.21;96004.88;5001613;28;20197;-72
2024/03/15 11:03:57;;;;;;;2.42;1.05;;;;;;;17.95;88.63;95999.13;5002476;28;20209;-71
2024/03/15 11:06:39;;;;;;;2.85;1.42;;;;;;;18.82;83.47;95998.06;5001292;28;20225;-71
2024/03/15 11:09:13;;;;;;;2.33;1.30;;;;;;;18.94;82.62;95996.22;5001891;28;20970;-72
2024/03/15 11:11:40;;;;;;;2.63;1.38;;;;;;;18.61;80.10;95996.00;5002444;28;20207;-70
2024/03/15 11:14:14;;;;;;;2.78;1.35;;;;;;;19.39;78.83;96010.56;5001015;28;20205;-70
2024/03/15 11:16:41;;;;;;;3.30;1.20;;;;;;;18.81;75.81;96001.78;5001307;28;20225;-71
2024/03/15 11:19:08;;;;;;;2.90;1.00;;;;;;;19.03;76.79;96000.97;5001535;28;20205;-70
2024/03/15 11:21:34;;;;;;;1.70;1.05;;;;;;;18.88;75.76;96012.38;5001417;28;20212;-71
2024/03/15 11:24:06;;;;;;;4.90;1.70;;;;;;;18.88;75.41;96010.50;5001612;28;20216;-72
2024/03/15 11:26:33;;;;;;;1.50;1.17;;;;;;;18.33;76.59;96016.41;5017648;28;20245;-72
2024/03/15 11:29:00;;;;;;;2.20;1.02;;;;;;;18.34;77.14;96010.84;5001637;28;20600;-71
2024/03/15 11:31:28;;;;;;;1.65;1.08;;;;;;;18.57;76.87;96004.69;5001548;28;20263;-70
2024/03/15 11:33:55;;;;;;;2.33;1.27;;;;;;;18.80;79.05;96008.19;5001661;28;20280;-72
2024/03/15 11:36:22;;;;;;;2.20;1.42;;;;;;;18.74;75.41;96003.78;5000706;28;20225;-70